sensor_id;sensor_type;location;lat;lon;timestamp;pressure;altitude;pressure_sealevel;temperature;humidity
48035;BME280;33812;46.480;6.834;2023-04-22T00:03:18;93086.00;;;21.62;43.06
48035;BME280;33812;46.480;6.834;2023-04-22T00:07:21;93095.53;;;21.61;43.00
48035;BME280;33812;46.480;6.834;2023-04-22T00:11:23;93085.66;;;21.60;42.86
48035;BME280;33812;46.480;6.834;2023-04-22T00:15:25;93090.75;;;21.61;42.84
48035;BME280;33812;46.480;6.834;2023-04-22T00:19:29;93088.44;;;21.60;42.77
48035;BME280;33812;46.480;6.834;2023-04-22T00:23:30;93086.13;;;21.58;42.72
48035;BME280;33812;46.480;6.834;2023-04-22T00:27:32;93088.13;;;21.58;42.37
48035;BME280;33812;46.480;6.834;2023-04-22T00:31:34;93092.44;;;21.59;42.30
48035;BME280;33812;46.480;6.834;2023-04-22T00:35:37;93085.50;;;21.54;42.65
48035;BME280;33812;46.480;6.834;2023-04-22T00:39:39;93086.00;;;21.62;42.64
48035;BME280;33812;46.480;6.834;2023-04-22T00:43:41;93088.75;;;21.62;42.63
48035;BME280;33812;46.480;6.834;2023-04-22T00:47:43;93093.66;;;21.58;42.67
48035;BME280;33812;46.480;6.834;2023-04-22T00:51:46;93077.69;;;21.62;42.70
48035;BME280;33812;46.480;6.834;2023-04-22T00:55:48;93093.34;;;21.56;42.50
48035;BME280;33812;46.480;6.834;2023-04-22T00:59:51;93092.91;;;21.57;42.56
48035;BME280;33812;46.480;6.834;2023-04-22T01:03:53;93092.13;;;21.57;42.38
48035;BME280;33812;46.480;6.834;2023-04-22T01:07:57;93092.13;;;21.57;42.37
48035;BME280;33812;46.480;6.834;2023-04-22T01:12:00;93080.75;;;21.55;42.33
48035;BME280;33812;46.480;6.834;2023-04-22T01:16:01;93095.81;;;21.54;42.31
48035;BME280;33812;46.480;6.834;2023-04-22T01:20:04;93087.50;;;21.54;42.25
48035;BME280;33812;46.480;6.834;2023-04-22T01:24:10;93084.16;;;21.59;42.19
48035;BME280;33812;46.480;6.834;2023-04-22T01:28:13;93089.34;;;21.57;42.30
48035;BME280;33812;46.480;6.834;2023-04-22T01:32:15;93094.88;;;21.57;42.34
48035;BME280;33812;46.480;6.834;2023-04-22T01:36:17;93075.06;;;21.58;42.18
48035;BME280;33812;46.480;6.834;2023-04-22T01:40:21;93080.47;;;21.62;42.14
48035;BME280;33812;46.480;6.834;2023-04-22T01:44:24;93083.69;;;21.60;41.96
48035;BME280;33812;46.480;6.834;2023-04-22T01:48:26;93093.03;;;21.63;42.04
48035;BME280;33812;46.480;6.834;2023-04-22T01:52:29;93093.97;;;21.60;42.14
48035;BME280;33812;46.480;6.834;2023-04-22T01:56:32;93088.91;;;21.58;42.03
48035;BME280;33812;46.480;6.834;2023-04-22T02:00:34;93092.91;;;21.57;41.97
48035;BME280;33812;46.480;6.834;2023-04-22T02:04:35;93095.03;;;21.53;41.98
48035;BME280;33812;46.480;6.834;2023-04-22T02:08:37;93109.16;;;21.55;41.80
48035;BME280;33812;46.480;6.834;2023-04-22T02:12:40;93100.88;;;21.55;41.94
48035;BME280;33812;46.480;6.834;2023-04-22T02:16:42;93103.31;;;21.53;41.78
48035;BME280;33812;46.480;6.834;2023-04-22T02:20:44;93107.75;;;21.50;42.03
48035;BME280;33812;46.480;6.834;2023-04-22T02:24:46;93107.47;;;21.58;41.89
48035;BME280;33812;46.480;6.834;2023-04-22T02:28:49;93110.56;;;21.60;41.89
48035;BME280;33812;46.480;6.834;2023-04-22T02:32:51;93103.97;;;21.57;41.65
48035;BME280;33812;46.480;6.834;2023-04-22T02:36:53;93118.22;;;21.56;41.72
48035;BME280;33812;46.480;6.834;2023-04-22T02:40:54;93111.47;;;21.57;41.75
48035;BME280;33812;46.480;6.834;2023-04-22T02:44:58;93107.31;;;21.52;41.85
48035;BME280;33812;46.480;6.834;2023-04-22T02:48:59;93104.56;;;21.52;41.85
48035;BME280;33812;46.480;6.834;2023-04-22T02:53:01;93109.47;;;21.48;41.85
48035;BME280;33812;46.480;6.834;2023-04-22T02:57:03;93113.59;;;21.53;41.56
48035;BME280;33812;46.480;6.834;2023-04-22T03:01:06;93119.28;;;21.49;42.80
48035;BME280;33812;46.480;6.834;2023-04-22T03:05:08;93126.38;;;21.50;43.50
48035;BME280;33812;46.480;6.834;2023-04-22T03:09:10;93138.03;;;21.54;44.29
48035;BME280;33812;46.480;6.834;2023-04-22T03:13:13;93131.44;;;21.52;43.94
48035;BME280;33812;46.480;6.834;2023-04-22T03:17:16;93134.19;;;21.52;44.24
48035;BME280;33812;46.480;6.834;2023-04-22T03:21:18;93126.50;;;21.56;43.86
48035;BME280;33812;46.480;6.834;2023-04-22T03:25:20;93137.28;;;21.54;44.13
48035;BME280;33812;46.480;6.834;2023-04-22T03:29:22;93135.72;;;21.53;44.32
48035;BME280;33812;46.480;6.834;2023-04-22T03:33:25;93124.97;;;21.55;43.99
48035;BME280;33812;46.480;6.834;2023-04-22T03:37:27;93129.28;;;21.56;43.96
48035;BME280;33812;46.480;6.834;2023-04-22T03:41:29;93122.22;;;21.55;43.88
48035;BME280;33812;46.480;6.834;2023-04-22T03:45:31;93117.31;;;21.59;43.52
48035;BME280;33812;46.480;6.834;2023-04-22T03:49:34;93129.13;;;21.50;43.49
48035;BME280;33812;46.480;6.834;2023-04-22T03:53:35;93113.59;;;21.53;43.60
48035;BME280;33812;46.480;6.834;2023-04-22T03:57:37;93124.34;;;21.50;43.61
48035;BME280;33812;46.480;6.834;2023-04-22T04:01:39;93116.69;;;21.55;43.33
48035;BME280;33812;46.480;6.834;2023-04-22T04:05:42;93115.44;;;21.56;42.92
48035;BME280;33812;46.480;6.834;2023-04-22T04:09:44;93117.59;;;21.52;42.89
48035;BME280;33812;46.480;6.834;2023-04-22T04:13:46;93122.81;;;21.49;42.76
48035;BME280;33812;46.480;6.834;2023-04-22T04:17:47;93122.50;;;21.47;42.76
48035;BME280;33812;46.480;6.834;2023-04-22T04:21:51;93111.44;;;21.47;42.59
48035;BME280;33812;46.480;6.834;2023-04-22T04:25:53;93122.03;;;21.49;42.39
48035;BME280;33812;46.480;6.834;2023-04-22T04:29:55;93119.00;;;21.47;42.42
48035;BME280;33812;46.480;6.834;2023-04-22T04:33:57;93121.59;;;21.50;42.10
48035;BME280;33812;46.480;6.834;2023-04-22T04:38:01;93110.84;;;21.53;42.23
48035;BME280;33812;46.480;6.834;2023-04-22T04:42:02;93119.59;;;21.51;42.07
48035;BME280;33812;46.480;6.834;2023-04-22T04:46:05;93129.00;;;21.54;41.95
48035;BME280;33812;46.480;6.834;2023-04-22T04:50:08;93134.19;;;21.52;41.87
48035;BME280;33812;46.480;6.834;2023-04-22T04:54:11;93146.31;;;21.54;41.72
48035;BME280;33812;46.480;6.834;2023-04-22T04:58:13;93150.00;;;21.51;41.70
48035;BME280;33812;46.480;6.834;2023-04-22T05:02:14;93154.00;;;21.50;41.57
48035;BME280;33812;46.480;6.834;2023-04-22T05:06:16;93162.16;;;21.54;41.44
48035;BME280;33812;46.480;6.834;2023-04-22T05:10:20;93162.47;;;21.56;41.36
48035;BME280;33812;46.480;6.834;2023-04-22T05:14:22;93163.22;;;21.56;41.53
48035;BME280;33812;46.480;6.834;2023-04-22T05:18:24;93159.88;;;21.61;41.53
48035;BME280;33812;46.480;6.834;2023-04-22T05:22:26;93159.88;;;21.61;41.28
48035;BME280;33812;46.480;6.834;2023-04-22T05:26:29;93171.72;;;21.62;41.02
48035;BME280;33812;46.480;6.834;2023-04-22T05:30:31;93168.63;;;21.60;40.95
48035;BME280;33812;46.480;6.834;2023-04-22T05:34:32;93168.16;;;21.61;40.93
48035;BME280;33812;46.480;6.834;2023-04-22T05:38:34;93178.47;;;21.61;40.43
48035;BME280;33812;46.480;6.834;2023-04-22T05:42:38;93174.78;;;21.64;40.18
48035;BME280;33812;46.480;6.834;2023-04-22T05:46:39;93183.22;;;21.60;39.54
48035;BME280;33812;46.480;6.834;2023-04-22T05:50:41;93187.19;;;21.59;39.77
48035;BME280;33812;46.480;6.834;2023-04-22T05:54:43;93185.84;;;21.64;39.39
48035;BME280;33812;46.480;6.834;2023-04-22T05:58:46;93189.06;;;21.62;39.83
48035;BME280;33812;46.480;6.834;2023-04-22T06:02:48;93212.41;;;21.61;39.70
48035;BME280;33812;46.480;6.834;2023-04-22T06:06:50;93204.88;;;21.62;39.68
48035;BME280;33812;46.480;6.834;2023-04-22T06:10:53;93229.31;;;21.64;39.55
48035;BME280;33812;46.480;6.834;2023-04-22T06:14:56;93217.34;;;21.67;39.87
48035;BME280;33812;46.480;6.834;2023-04-22T06:18:58;93207.97;;;21.64;40.08
48035;BME280;33812;46.480;6.834;2023-04-22T06:22:59;93184.75;;;21.61;40.26
48035;BME280;33812;46.480;6.834;2023-04-22T06:27:01;93214.59;;;21.67;39.97
48035;BME280;33812;46.480;6.834;2023-04-22T06:31:04;93247.81;;;21.76;40.10
48035;BME280;33812;46.480;6.834;2023-04-22T06:35:07;93218.91;;;21.77;40.13
48035;BME280;33812;46.480;6.834;2023-04-22T06:39:11;93199.25;;;21.75;39.98
48035;BME280;33812;46.480;6.834;2023-04-22T06:43:13;93212.00;;;21.72;39.97
48035;BME280;33812;46.480;6.834;2023-04-22T06:47:16;93248.28;;;21.74;39.55
48035;BME280;33812;46.480;6.834;2023-04-22T06:51:19;93246.56;;;21.77;40.09
48035;BME280;33812;46.480;6.834;2023-04-22T06:55:20;93219.06;;;21.73;39.84
48035;BME280;33812;46.480;6.834;2023-04-22T06:59:28;93214.44;;;21.70;40.02
48035;BME280;33812;46.480;6.834;2023-04-22T07:03:35;93225.38;;;21.74;39.75
48035;BME280;33812;46.480;6.834;2023-04-22T07:07:37;93219.06;;;21.73;39.91
48035;BME280;33812;46.480;6.834;2023-04-22T07:11:39;93228.28;;;21.70;40.01
48035;BME280;33812;46.480;6.834;2023-04-22T07:15:42;93214.13;;;21.68;39.73
48035;BME280;33812;46.480;6.834;2023-04-22T07:19:47;93236.75;;;21.76;39.17
48035;BME280;33812;46.480;6.834;2023-04-22T07:23:48;93218.06;;;21.58;36.52
48035;BME280;33812;46.480;6.834;2023-04-22T07:27:52;93229.78;;;21.62;37.72
48035;BME280;33812;46.480;6.834;2023-04-22T07:31:54;93204.28;;;21.67;37.47
48035;BME280;33812;46.480;6.834;2023-04-22T07:35:57;93203.06;;;21.68;37.64
48035;BME280;33812;46.480;6.834;2023-04-22T07:39:58;93207.06;;;21.67;37.67
48035;BME280;33812;46.480;6.834;2023-04-22T07:44:01;93205.81;;;21.68;37.42
48035;BME280;33812;46.480;6.834;2023-04-22T07:48:03;93201.53;;;21.67;37.02
48035;BME280;33812;46.480;6.834;2023-04-22T07:52:06;93214.13;;;21.68;36.93
48035;BME280;33812;46.480;6.834;2023-04-22T07:56:08;93220.13;;;21.67;36.72
48035;BME280;33812;46.480;6.834;2023-04-22T08:00:10;93226.75;;;21.69;37.07
48035;BME280;33812;46.480;6.834;2023-04-22T08:04:12;93221.97;;;21.70;37.02
48035;BME280;33812;46.480;6.834;2023-04-22T08:08:15;93235.03;;;21.69;36.66
48035;BME280;33812;46.480;6.834;2023-04-22T08:12:17;93237.03;;;21.69;37.12
48035;BME280;33812;46.480;6.834;2023-04-22T08:16:19;93236.69;;;21.67;36.86
48035;BME280;33812;46.480;6.834;2023-04-22T08:20:21;93235.94;;;21.66;36.63
48035;BME280;33812;46.480;6.834;2023-04-22T08:24:24;93225.50;;;21.70;37.06
48035;BME280;33812;46.480;6.834;2023-04-22T08:28:26;93233.81;;;21.70;37.15
48035;BME280;33812;46.480;6.834;2023-04-22T08:32:29;93231.03;;;21.70;37.38
48035;BME280;33812;46.480;6.834;2023-04-22T08:36:31;93235.78;;;21.70;37.43
48035;BME280;33812;46.480;6.834;2023-04-22T08:40:34;93243.66;;;21.71;37.40
48035;BME280;33812;46.480;6.834;2023-04-22T08:44:38;93247.63;;;21.70;37.31
48035;BME280;33812;46.480;6.834;2023-04-22T08:48:40;93257.47;;;21.71;37.16
48035;BME280;33812;46.480;6.834;2023-04-22T08:52:42;93260.25;;;21.71;37.20
48035;BME280;33812;46.480;6.834;2023-04-22T08:56:45;93272.53;;;21.70;37.20
48035;BME280;33812;46.480;6.834;2023-04-22T09:00:47;93261.78;;;21.72;37.28
48035;BME280;33812;46.480;6.834;2023-04-22T09:04:50;93266.53;;;21.72;37.41
48035;BME280;33812;46.480;6.834;2023-04-22T09:08:52;93270.84;;;21.73;37.35
48035;BME280;33812;46.480;6.834;2023-04-22T09:12:57;93270.06;;;21.72;37.37
48035;BME280;33812;46.480;6.834;2023-04-22T09:16:59;93277.91;;;21.74;37.26
48035;BME280;33812;46.480;6.834;2023-04-22T09:21:03;93279.91;;;21.73;37.32
48035;BME280;33812;46.480;6.834;2023-04-22T09:25:06;93269.28;;;21.72;37.60
48035;BME280;33812;46.480;6.834;2023-04-22T09:29:13;93279.91;;;21.73;37.43
48035;BME280;33812;46.480;6.834;2023-04-22T09:33:15;93301.28;;;21.73;37.50
48035;BME280;33812;46.480;6.834;2023-04-22T09:37:18;93290.50;;;21.75;37.63
48035;BME280;33812;46.480;6.834;2023-04-22T09:41:26;93254.72;;;21.71;37.60
48035;BME280;33812;46.480;6.834;2023-04-22T09:45:32;93212.91;;;21.69;37.72
48035;BME280;33812;46.480;6.834;2023-04-22T09:49:35;93200.28;;;21.68;37.61
48035;BME280;33812;46.480;6.834;2023-04-22T09:53:38;93209.81;;;21.67;37.57
48035;BME280;33812;46.480;6.834;2023-04-22T09:57:39;93216.88;;;21.68;37.43
48035;BME280;33812;46.480;6.834;2023-04-22T10:01:42;93240.88;;;21.71;37.30
48035;BME280;33812;46.480;6.834;2023-04-22T10:05:44;93260.09;;;21.75;37.17
48035;BME280;33812;46.480;6.834;2023-04-22T10:09:46;93251.03;;;21.74;37.35
48035;BME280;33812;46.480;6.834;2023-04-22T10:13:48;93246.72;;;21.73;37.69
48035;BME280;33812;46.480;6.834;2023-04-22T10:17:53;93240.44;;;21.73;38.29
48035;BME280;33812;46.480;6.834;2023-04-22T10:21:59;93260.41;;;21.77;38.11
48035;BME280;33812;46.480;6.834;2023-04-22T10:26:04;93279.75;;;21.77;38.14
48035;BME280;33812;46.480;6.834;2023-04-22T10:30:08;93275.78;;;21.78;37.91
48035;BME280;33812;46.480;6.834;2023-04-22T10:34:13;93268.69;;;21.77;37.97
48035;BME280;33812;46.480;6.834;2023-04-22T10:38:15;93268.69;;;21.77;38.06
48035;BME280;33812;46.480;6.834;2023-04-22T10:42:18;93274.13;;;21.81;38.11
48035;BME280;33812;46.480;6.834;2023-04-22T10:46:55;93249.69;;;21.79;38.43
48035;BME280;33812;46.480;6.834;2023-04-22T10:50:59;93250.34;;;21.83;38.56
48035;BME280;33812;46.480;6.834;2023-04-22T10:55:02;93275.97;;;21.84;38.61
48035;BME280;33812;46.480;6.834;2023-04-22T10:59:14;93272.31;;;21.87;39.02
48035;BME280;33812;46.480;6.834;2023-04-22T11:03:16;93269.69;;;21.83;39.16
48035;BME280;33812;46.480;6.834;2023-04-22T11:07:30;93276.63;;;21.88;39.44
48035;BME280;33812;46.480;6.834;2023-04-22T11:11:34;93273.53;;;21.86;39.47
48035;BME280;33812;46.480;6.834;2023-04-22T11:15:38;93278.47;;;21.91;39.73
48035;BME280;33812;46.480;6.834;2023-04-22T11:19:40;93304.16;;;21.92;39.75
48035;BME280;33812;46.480;6.834;2023-04-22T11:23:50;93310.00;;;21.94;39.74
48035;BME280;33812;46.480;6.834;2023-04-22T11:27:58;93310.75;;;21.94;39.94
48035;BME280;33812;46.480;6.834;2023-04-22T11:32:02;93312.31;;;21.95;40.51
48035;BME280;33812;46.480;6.834;2023-04-22T11:36:04;93311.41;;;21.98;40.81
48035;BME280;33812;46.480;6.834;2023-04-22T11:40:08;93316.94;;;21.98;40.63
48035;BME280;33812;46.480;6.834;2023-04-22T11:44:13;93316.94;;;21.98;40.83
48035;BME280;33812;46.480;6.834;2023-04-22T11:48:15;93308.63;;;21.98;40.84
48035;BME280;33812;46.480;6.834;2023-04-22T11:52:16;93296.78;;;21.98;41.40
48035;BME280;33812;46.480;6.834;2023-04-22T11:56:21;93307.84;;;21.98;41.22
48035;BME280;33812;46.480;6.834;2023-04-22T12:00:24;93314.94;;;21.99;41.01
48035;BME280;33812;46.480;6.834;2023-04-22T12:04:28;93288.03;;;22.00;40.93
48035;BME280;33812;46.480;6.834;2023-04-22T12:08:31;93261.59;;;21.98;41.30
48035;BME280;33812;46.480;6.834;2023-04-22T12:12:38;93221.34;;;21.97;41.19
48035;BME280;33812;46.480;6.834;2023-04-22T12:16:40;93230.84;;;21.96;41.34
48035;BME280;33812;46.480;6.834;2023-04-22T12:20:42;93225.63;;;21.98;41.26
48035;BME280;33812;46.480;6.834;2023-04-22T12:24:44;93232.69;;;22.00;41.42
48035;BME280;33812;46.480;6.834;2023-04-22T12:28:48;93204.72;;;21.97;41.83
48035;BME280;33812;46.480;6.834;2023-04-22T12:32:51;93199.34;;;21.94;41.45
48035;BME280;33812;46.480;6.834;2023-04-22T12:36:52;93206.41;;;21.95;41.35
48035;BME280;33812;46.480;6.834;2023-04-22T12:40:56;93224.09;;;21.97;40.62
48035;BME280;33812;46.480;6.834;2023-04-22T12:45:01;93223.31;;;21.97;40.84
48035;BME280;33812;46.480;6.834;2023-04-22T12:49:03;93206.25;;;21.98;41.20
48035;BME280;33812;46.480;6.834;2023-04-22T12:53:05;93200.72;;;21.98;41.74
48035;BME280;33812;46.480;6.834;2023-04-22T12:57:06;93185.97;;;22.02;41.58
48035;BME280;33812;46.480;6.834;2023-04-22T13:01:14;93184.03;;;21.70;40.16
48035;BME280;33812;46.480;6.834;2023-04-22T13:05:18;93184.00;;;21.61;40.83
48035;BME280;33812;46.480;6.834;2023-04-22T13:09:22;93202.13;;;21.62;40.65
48035;BME280;33812;46.480;6.834;2023-04-22T13:13:25;93214.91;;;21.37;40.99
48035;BME280;33812;46.480;6.834;2023-04-22T13:17:28;93197.03;;;20.74;40.71
48035;BME280;33812;46.480;6.834;2023-04-22T13:21:30;93198.72;;;21.26;40.92
48035;BME280;33812;46.480;6.834;2023-04-22T13:25:33;93201.09;;;21.37;38.70
48035;BME280;33812;46.480;6.834;2023-04-22T13:29:36;93198.38;;;21.46;38.97
48035;BME280;33812;46.480;6.834;2023-04-22T13:33:40;93204.88;;;21.62;40.43
48035;BME280;33812;46.480;6.834;2023-04-22T13:37:43;93203.38;;;21.70;40.96
48035;BME280;33812;46.480;6.834;2023-04-22T13:41:47;93200.00;;;21.76;41.08
48035;BME280;33812;46.480;6.834;2023-04-22T13:45:49;93206.22;;;21.80;41.44
48035;BME280;33812;46.480;6.834;2023-04-22T13:49:52;93189.94;;;21.82;41.84
48035;BME280;33812;46.480;6.834;2023-04-22T13:53:54;93194.22;;;21.83;42.19
48035;BME280;33812;46.480;6.834;2023-04-22T13:57:56;93177.63;;;21.83;42.43
48035;BME280;33812;46.480;6.834;2023-04-22T14:01:57;93172.88;;;21.83;42.24
48035;BME280;33812;46.480;6.834;2023-04-22T14:06:00;93175.97;;;21.85;42.38
48035;BME280;33812;46.480;6.834;2023-04-22T14:10:04;93174.72;;;21.86;42.52
48035;BME280;33812;46.480;6.834;2023-04-22T14:14:08;93159.19;;;21.89;42.38
48035;BME280;33812;46.480;6.834;2023-04-22T14:18:10;93161.53;;;21.91;42.21
48035;BME280;33812;46.480;6.834;2023-04-22T14:22:13;93149.53;;;21.94;42.20
48035;BME280;33812;46.480;6.834;2023-04-22T14:26:15;93138.78;;;21.96;42.40
48035;BME280;33812;46.480;6.834;2023-04-22T14:30:18;93160.47;;;21.97;42.13
48035;BME280;33812;46.480;6.834;2023-04-22T14:34:21;93157.38;;;21.95;42.20
48035;BME280;33812;46.480;6.834;2023-04-22T14:38:25;93136.78;;;21.96;42.32
48035;BME280;33812;46.480;6.834;2023-04-22T14:42:34;93136.31;;;21.98;42.79
48035;BME280;33812;46.480;6.834;2023-04-22T14:46:36;93138.34;;;21.97;42.83
48035;BME280;33812;46.480;6.834;2023-04-22T14:50:38;93149.25;;;22.01;43.17
48035;BME280;33812;46.480;6.834;2023-04-22T14:54:41;93146.91;;;22.00;42.89
48035;BME280;33812;46.480;6.834;2023-04-22T14:58:48;93157.97;;;22.00;42.68
48035;BME280;33812;46.480;6.834;2023-04-22T15:02:50;93183.19;;;22.02;42.69
48035;BME280;33812;46.480;6.834;2023-04-22T15:06:53;93210.41;;;22.03;42.36
48035;BME280;33812;46.480;6.834;2023-04-22T15:10:59;93203.22;;;22.06;42.68
48035;BME280;33812;46.480;6.834;2023-04-22T15:15:00;93198.00;;;22.08;42.56
48035;BME280;33812;46.480;6.834;2023-04-22T15:19:04;93203.22;;;22.06;42.55
48035;BME280;33812;46.480;6.834;2023-04-22T15:23:06;93198.59;;;22.03;42.62
48035;BME280;33812;46.480;6.834;2023-04-22T15:27:09;93213.03;;;21.97;42.67
48035;BME280;33812;46.480;6.834;2023-04-22T15:31:11;93207.78;;;22.00;42.74
48035;BME280;33812;46.480;6.834;2023-04-22T15:35:13;93193.94;;;22.00;42.52
48035;BME280;33812;46.480;6.834;2023-04-22T15:39:15;93167.84;;;22.01;42.62
48035;BME280;33812;46.480;6.834;2023-04-22T15:43:18;93159.53;;;22.01;42.86
48035;BME280;33812;46.480;6.834;2023-04-22T15:47:20;93137.72;;;22.03;42.68
48035;BME280;33812;46.480;6.834;2023-04-22T15:51:21;93136.00;;;22.05;42.83
48035;BME280;33812;46.480;6.834;2023-04-22T15:55:23;93135.09;;;22.08;42.71
48035;BME280;33812;46.480;6.834;2023-04-22T15:59:27;93121.09;;;22.12;42.61
48035;BME280;33812;46.480;6.834;2023-04-22T16:03:29;93121.41;;;22.14;42.55
48035;BME280;33812;46.480;6.834;2023-04-22T16:07:31;93117.72;;;22.17;42.79
48035;BME280;33812;46.480;6.834;2023-04-22T16:11:34;93114.03;;;22.11;42.89
48035;BME280;33812;46.480;6.834;2023-04-22T16:15:37;93119.59;;;22.11;42.64
48035;BME280;33812;46.480;6.834;2023-04-22T16:19:39;93115.56;;;22.12;42.20
48035;BME280;33812;46.480;6.834;2023-04-22T16:23:41;93112.34;;;22.14;42.02
48035;BME280;33812;46.480;6.834;2023-04-22T16:27:45;93113.75;;;22.18;41.63
48035;BME280;33812;46.480;6.834;2023-04-22T16:31:50;93122.38;;;22.20;41.52
48035;BME280;33812;46.480;6.834;2023-04-22T16:35:52;93123.13;;;22.21;42.28
48035;BME280;33812;46.480;6.834;2023-04-22T16:39:53;93122.66;;;22.22;42.53
48035;BME280;33812;46.480;6.834;2023-04-22T16:43:55;93132.50;;;22.24;42.70
48035;BME280;33812;46.480;6.834;2023-04-22T16:47:59;93140.59;;;21.39;41.12
48035;BME280;33812;46.480;6.834;2023-04-22T16:52:02;93137.50;;;20.73;41.82
48035;BME280;33812;46.480;6.834;2023-04-22T16:56:04;93141.59;;;19.75;41.37
48035;BME280;33812;46.480;6.834;2023-04-22T17:00:07;93147.94;;;20.34;41.98
48035;BME280;33812;46.480;6.834;2023-04-22T17:04:10;93155.19;;;20.63;39.44
48035;BME280;33812;46.480;6.834;2023-04-22T17:08:12;93147.97;;;21.01;39.49
48035;BME280;33812;46.480;6.834;2023-04-22T17:12:14;93164.38;;;20.60;37.80
48035;BME280;33812;46.480;6.834;2023-04-22T17:16:16;93156.44;;;19.91;39.60
48035;BME280;33812;46.480;6.834;2023-04-22T17:20:19;93154.09;;;20.15;41.30
48035;BME280;33812;46.480;6.834;2023-04-22T17:24:22;93169.91;;;20.82;38.86
48035;BME280;33812;46.480;6.834;2023-04-22T17:28:24;93165.22;;;21.14;39.77
48035;BME280;33812;46.480;6.834;2023-04-22T17:32:28;93163.97;;;21.47;39.70
48035;BME280;33812;46.480;6.834;2023-04-22T17:36:31;93182.34;;;21.32;39.50
48035;BME280;33812;46.480;6.834;2023-04-22T17:40:40;93157.50;;;21.41;39.58
48035;BME280;33812;46.480;6.834;2023-04-22T17:44:43;93169.03;;;21.49;39.90
48035;BME280;33812;46.480;6.834;2023-04-22T17:48:44;93149.63;;;21.30;40.03
48035;BME280;33812;46.480;6.834;2023-04-22T17:52:48;93163.41;;;21.62;40.53
48035;BME280;33812;46.480;6.834;2023-04-22T17:56:50;93164.75;;;21.48;40.65
48035;BME280;33812;46.480;6.834;2023-04-22T18:00:52;93173.19;;;21.12;40.04
48035;BME280;33812;46.480;6.834;2023-04-22T18:04:53;93170.75;;;21.14;40.92
48035;BME280;33812;46.480;6.834;2023-04-22T18:08:57;93171.59;;;21.02;40.51
48035;BME280;33812;46.480;6.834;2023-04-22T18:12:58;93176.19;;;21.28;41.42
48035;BME280;33812;46.480;6.834;2023-04-22T18:17:00;93171.31;;;21.41;41.33
48035;BME280;33812;46.480;6.834;2023-04-22T18:21:02;93149.09;;;21.13;39.76
48035;BME280;33812;46.480;6.834;2023-04-22T18:25:06;93139.13;;;21.16;40.88
48035;BME280;33812;46.480;6.834;2023-04-22T18:29:09;93133.28;;;21.13;40.24
48035;BME280;33812;46.480;6.834;2023-04-22T18:33:11;93132.91;;;21.34;40.53
48035;BME280;33812;46.480;6.834;2023-04-22T18:37:13;93130.09;;;21.24;40.26
48035;BME280;33812;46.480;6.834;2023-04-22T18:41:19;93141.34;;;20.98;40.28
48035;BME280;33812;46.480;6.834;2023-04-22T18:45:21;93161.41;;;21.21;40.46
48035;BME280;33812;46.480;6.834;2023-04-22T18:49:23;93166.34;;;21.26;41.96
48035;BME280;33812;46.480;6.834;2023-04-22T18:53:26;93192.78;;;21.05;42.43
48035;BME280;33812;46.480;6.834;2023-04-22T18:57:29;93201.66;;;21.00;43.75
48035;BME280;33812;46.480;6.834;2023-04-22T19:01:33;93213.22;;;21.08;44.30
48035;BME280;33812;46.480;6.834;2023-04-22T19:05:35;93220.91;;;20.90;39.73
48035;BME280;33812;46.480;6.834;2023-04-22T19:09:37;93218.53;;;20.57;39.66
48035;BME280;33812;46.480;6.834;2023-04-22T19:13:41;93218.06;;;20.94;40.87
48035;BME280;33812;46.480;6.834;2023-04-22T19:17:42;93218.44;;;21.06;42.16
48035;BME280;33812;46.480;6.834;2023-04-22T19:21:44;93219.78;;;21.01;41.65
48035;BME280;33812;46.480;6.834;2023-04-22T19:25:46;93235.25;;;20.98;42.64
48035;BME280;33812;46.480;6.834;2023-04-22T19:29:49;93235.38;;;20.95;42.49
48035;BME280;33812;46.480;6.834;2023-04-22T19:33:52;93241.81;;;21.14;43.66
48035;BME280;33812;46.480;6.834;2023-04-22T19:37:54;93243.81;;;21.13;43.20
48035;BME280;33812;46.480;6.834;2023-04-22T19:41:56;93244.47;;;20.82;42.56
48035;BME280;33812;46.480;6.834;2023-04-22T19:46:00;93239.47;;;20.90;43.90
48035;BME280;33812;46.480;6.834;2023-04-22T19:50:03;93239.09;;;21.23;43.13
48035;BME280;33812;46.480;6.834;2023-04-22T19:54:06;93237.28;;;20.85;42.48
48035;BME280;33812;46.480;6.834;2023-04-22T19:58:27;93242.66;;;21.24;38.74
48035;BME280;33812;46.480;6.834;2023-04-22T20:02:33;93240.94;;;21.17;37.30
48035;BME280;33812;46.480;6.834;2023-04-22T20:06:35;93237.03;;;20.92;36.72
48035;BME280;33812;46.480;6.834;2023-04-22T20:10:38;93252.91;;;20.78;36.79
48035;BME280;33812;46.480;6.834;2023-04-22T20:14:40;93242.16;;;20.81;37.57
48035;BME280;33812;46.480;6.834;2023-04-22T20:18:44;93236.06;;;20.63;38.50
48035;BME280;33812;46.480;6.834;2023-04-22T20:22:47;93239.00;;;20.69;38.67
48035;BME280;33812;46.480;6.834;2023-04-22T20:26:50;93240.38;;;20.64;38.55
48035;BME280;33812;46.480;6.834;2023-04-22T20:30:52;93249.28;;;20.33;39.17
48035;BME280;33812;46.480;6.834;2023-04-22T20:34:56;93252.22;;;20.52;40.91
48035;BME280;33812;46.480;6.834;2023-04-22T20:39:01;93267.31;;;20.60;40.91
48035;BME280;33812;46.480;6.834;2023-04-22T20:43:09;93263.09;;;20.69;42.80
48035;BME280;33812;46.480;6.834;2023-04-22T20:47:12;93261.19;;;20.78;42.83
48035;BME280;33812;46.480;6.834;2023-04-22T20:51:17;93248.72;;;20.74;42.43
48035;BME280;33812;46.480;6.834;2023-04-22T20:55:18;93254.66;;;20.50;42.65
48035;BME280;33812;46.480;6.834;2023-04-22T20:59:21;93257.69;;;20.65;43.44
48035;BME280;33812;46.480;6.834;2023-04-22T21:03:23;93256.94;;;20.64;42.94
48035;BME280;33812;46.480;6.834;2023-04-22T21:07:28;93254.19;;;20.51;44.03
48035;BME280;33812;46.480;6.834;2023-04-22T21:11:31;93257.31;;;20.76;43.08
48035;BME280;33812;46.480;6.834;2023-04-22T21:15:33;93251.47;;;20.74;43.12
48035;BME280;33812;46.480;6.834;2023-04-22T21:19:37;93247.19;;;20.73;42.25
48035;BME280;33812;46.480;6.834;2023-04-22T21:23:42;93249.25;;;20.82;42.52
48035;BME280;33812;46.480;6.834;2023-04-22T21:27:44;93248.66;;;20.87;42.32